createdAt,value
2022-09-12T00:00:29.633Z,98879.47
2022-09-12T00:02:02.794Z,98879.78
2022-09-12T00:03:35.195Z,98881.69
2022-09-12T00:05:10.222Z,98889.81
2022-09-12T00:06:43.691Z,98893.69
2022-09-12T00:08:16.853Z,98893.56
2022-09-12T00:09:50.088Z,98900.75
2022-09-12T00:11:23.745Z,98888.88
2022-09-12T00:12:57.124Z,98892.28
2022-09-12T00:14:30.473Z,98906.63
2022-09-12T00:16:03.053Z,98908.53
2022-09-12T00:17:37.136Z,98917.31
2022-09-12T00:19:11.671Z,98911.75
2022-09-12T00:20:46.460Z,98911.75
2022-09-12T00:22:19.785Z,98889.41
2022-09-12T00:23:53.590Z,98896.44
2022-09-12T00:25:26.955Z,98906.22
2022-09-12T00:27:00.183Z,98907.25
2022-09-12T00:28:33.989Z,98891.09
2022-09-12T00:30:08.394Z,98898.06
2022-09-12T00:31:41.903Z,98896.34
2022-09-12T00:33:15.511Z,98896.34
2022-09-12T00:34:48.667Z,98904.03
2022-09-12T00:36:24.699Z,98892.25
2022-09-12T00:37:58.024Z,98882.84
2022-09-12T00:39:31.255Z,98881.38
2022-09-12T00:41:04.470Z,98883.19
2022-09-12T00:42:37.935Z,98862.13
2022-09-12T00:44:53.956Z,98881.59
2022-09-12T00:46:36.414Z,98878.41
2022-09-12T00:48:21.263Z,98879.59
2022-09-12T00:50:01.114Z,98884.41
2022-09-12T00:51:38.056Z,98883.75
2022-09-12T00:53:12.460Z,98881.19
2022-09-12T00:54:51.744Z,98878.63
2022-09-12T00:56:25.634Z,98881.41
2022-09-12T00:58:03.144Z,98890.09
2022-09-12T00:59:39.916Z,98869.31
2022-09-12T01:01:13.748Z,98882.25
2022-09-12T01:02:51.934Z,98882.78
2022-09-12T01:04:27.103Z,98885.22
2022-09-12T01:06:08.626Z,98884.38
2022-09-12T01:07:44.908Z,98886.09
2022-09-12T01:09:20.826Z,98880.00
2022-09-12T01:10:54.123Z,98884.47
2022-09-12T01:12:27.984Z,98871.34
2022-09-12T01:14:00.496Z,98874.53
2022-09-12T01:15:34.055Z,98870.47
2022-09-12T01:17:06.418Z,98882.25
2022-09-12T01:18:56.439Z,98885.44
2022-09-12T01:20:51.375Z,98886.00
2022-09-12T01:22:41.808Z,98886.22
2022-09-12T01:24:53.513Z,98875.41
2022-09-12T01:26:53.165Z,98891.25
2022-09-12T01:28:46.899Z,98889.09
2022-09-12T01:30:25.122Z,98889.97
2022-09-12T01:32:06.919Z,98888.88
2022-09-12T01:33:54.592Z,98882.44
2022-09-12T01:35:35.534Z,98888.88
2022-09-12T01:37:16.975Z,98878.41
2022-09-12T01:38:53.385Z,98893.78
2022-09-12T01:40:34.956Z,98884.81
2022-09-12T01:42:17.325Z,98880.41
2022-09-12T01:43:56.042Z,98873.47
2022-09-12T01:45:39.022Z,98879.28
2022-09-12T01:47:16.453Z,98876.16
2022-09-12T01:48:57.465Z,98877.78
2022-09-12T01:50:35.090Z,98878.53
2022-09-12T01:52:15.620Z,98873.94
2022-09-12T01:53:53.245Z,98879.28
2022-09-12T01:55:31.645Z,98862.47
2022-09-12T01:57:11.580Z,98866.22
2022-09-12T01:58:47.079Z,98867.31
2022-09-12T02:00:21.233Z,98869.00
2022-09-12T02:02:03.289Z,98870.97
2022-09-12T02:03:41.740Z,98882.66
2022-09-12T02:05:19.868Z,98880.09
2022-09-12T02:06:59.344Z,98884.50
2022-09-12T02:08:36.340Z,98884.44
2022-09-12T02:10:14.643Z,98880.09
2022-09-12T02:11:51.706Z,98875.94
2022-09-12T02:13:28.421Z,98871.34
2022-09-12T02:15:05.047Z,98874.00
2022-09-12T02:16:41.977Z,98873.25
2022-09-12T02:18:19.552Z,98866.97
2022-09-12T02:19:56.875Z,98865.13
2022-09-12T02:21:33.290Z,98864.28
2022-09-12T02:23:11.339Z,98862.56
2022-09-12T02:24:48.801Z,98859.69
2022-09-12T02:26:25.933Z,98861.38
2022-09-12T02:28:05.281Z,98855.31
2022-09-12T02:29:37.576Z,98851.88
2022-09-12T02:31:18.245Z,98853.59
2022-09-12T02:33:01.537Z,98855.31
2022-09-12T02:34:49.659Z,98857.22
2022-09-12T02:36:34.727Z,98863.63
2022-09-12T02:38:12.574Z,98859.38
2022-09-12T02:39:46.229Z,98864.94
2022-09-12T02:41:21.862Z,98865.03
2022-09-12T02:42:55.262Z,98867.06
2022-09-12T02:44:30.050Z,98867.28
2022-09-12T02:46:03.237Z,98874.53
2022-09-12T02:47:43.007Z,98872.84
2022-09-12T02:49:17.257Z,98876.47
2022-09-12T02:50:52.101Z,98874.00
2022-09-12T02:52:26.722Z,98880.53
2022-09-12T02:54:01.061Z,98877.00
2022-09-12T02:55:36.004Z,98877.97
2022-09-12T02:57:21.909Z,98873.50
2022-09-12T02:59:00.760Z,98880.75
2022-09-12T03:00:39.223Z,98888.97
2022-09-12T03:02:24.532Z,98879.25
2022-09-12T03:04:19.676Z,98888.13
2022-09-12T03:05:59.122Z,98885.56
2022-09-12T03:07:47.476Z,98890.34
2022-09-12T03:09:28.440Z,98885.44
2022-09-12T03:11:24.010Z,98889.06
2022-09-12T03:13:09.223Z,98889.38
2022-09-12T03:15:06.111Z,98883.94
2022-09-12T03:16:49.760Z,98886.72
2022-09-12T03:18:40.588Z,98887.78
2022-09-12T03:20:19.435Z,98884.34
2022-09-12T03:22:04.702Z,98879.19
2022-09-12T03:23:44.471Z,98884.09
2022-09-12T03:25:21.840Z,98880.56
2022-09-12T03:26:59.730Z,98892.88
2022-09-12T03:28:35.910Z,98884.97
2022-09-12T03:30:11.009Z,98888.59
2022-09-12T03:31:52.536Z,98883.25
2022-09-12T03:33:27.181Z,98882.59
2022-09-12T03:35:00.667Z,98887.09
2022-09-12T03:36:34.108Z,98886.44
2022-09-12T03:38:09.083Z,98881.00
2022-09-12T03:39:42.379Z,98883.88
2022-09-12T03:41:15.698Z,98881.97
2022-09-12T03:42:48.942Z,98887.09
2022-09-12T03:44:22.124Z,98882.41
2022-09-12T03:45:54.358Z,98884.78
2022-09-12T03:47:27.641Z,98878.38
2022-09-12T03:49:00.968Z,98878.78
2022-09-12T03:50:35.068Z,98878.38
2022-09-12T03:52:08.170Z,98870.91
2022-09-12T03:53:43.042Z,98876.25
2022-09-12T03:55:16.511Z,98873.28
2022-09-12T03:56:49.647Z,98874.88
2022-09-12T03:58:22.813Z,98883.50
2022-09-12T03:59:56.094Z,98873.69
2022-09-12T04:01:28.603Z,98877.97
2022-09-12T04:03:01.848Z,98885.97
2022-09-12T04:04:35.722Z,98886.75
2022-09-12T04:06:10.679Z,98889.31
2022-09-12T04:07:44.153Z,98887.38
2022-09-12T04:09:18.711Z,98893.78
2022-09-12T04:10:50.852Z,98892.19
2022-09-12T04:12:24.234Z,98892.19
2022-09-12T04:13:57.422Z,98890.47
2022-09-12T04:15:30.610Z,98891.44
2022-09-12T04:17:02.819Z,98889.53
2022-09-12T04:18:36.866Z,98884.81
2022-09-12T04:20:10.455Z,98890.81
2022-09-12T04:21:43.729Z,98887.59
2022-09-12T04:23:15.821Z,98880.22
2022-09-12T04:24:50.685Z,98886.09
2022-09-12T04:26:24.170Z,98892.72
2022-09-12T04:27:57.385Z,98893.34
2022-09-12T04:29:31.586Z,98889.66
2022-09-12T04:31:07.633Z,98895.75
2022-09-12T04:32:41.507Z,98893.06
2022-09-12T04:34:15.257Z,98897.69
2022-09-12T04:35:48.722Z,98888.47
2022-09-12T04:37:23.755Z,98897.03
2022-09-12T04:38:57.361Z,98896.81
2022-09-12T04:40:31.640Z,98897.22
2022-09-12T04:42:04.967Z,98888.66
2022-09-12T04:43:38.376Z,98888.31
2022-09-12T04:45:13.163Z,98891.44
2022-09-12T04:46:49.719Z,98887.09
2022-09-12T04:48:22.987Z,98893.50
2022-09-12T04:49:57.126Z,98890.09
2022-09-12T04:51:31.693Z,98901.88
2022-09-12T04:53:04.840Z,98907.88
2022-09-12T04:54:38.673Z,98908.50
2022-09-12T04:56:13.452Z,98903.91
2022-09-12T04:57:46.011Z,98899.72
2022-09-12T04:59:20.789Z,98899.25
2022-09-12T05:00:53.955Z,98896.13
2022-09-12T05:02:27.763Z,98893.38
2022-09-12T05:04:00.327Z,98903.41
2022-09-12T05:05:33.554Z,98900.81
2022-09-12T05:07:07.031Z,98900.03
2022-09-12T05:08:39.415Z,98915.31
2022-09-12T05:10:12.751Z,98909.25
2022-09-12T05:12:04.906Z,98920.19
2022-09-12T05:13:39.078Z,98908.94
2022-09-12T05:15:12.884Z,98910.06
2022-09-12T05:16:49.399Z,98906.75
2022-09-12T05:18:22.910Z,98891.50
2022-09-12T05:19:56.045Z,98899.13
2022-09-12T05:21:29.498Z,98894.31
2022-09-12T05:23:02.819Z,98893.31
2022-09-12T05:24:37.918Z,98910.28
2022-09-12T05:26:13.769Z,98909.50
2022-09-12T05:27:50.553Z,98894.41
2022-09-12T05:29:25.191Z,98897.44
2022-09-12T05:31:02.932Z,98890.69
2022-09-12T05:32:36.333Z,98896.19
2022-09-12T05:34:10.412Z,98878.41
2022-09-12T05:35:42.719Z,98880.13
2022-09-12T05:37:15.892Z,98889.88
2022-09-12T05:38:49.445Z,98898.50
2022-09-12T05:40:23.146Z,98885.69
2022-09-12T05:41:56.467Z,98876.28
2022-09-12T05:43:31.465Z,98877.09
2022-09-12T05:45:04.964Z,98869.91
2022-09-12T05:46:40.635Z,98876.25
2022-09-12T05:48:13.928Z,98892.25
2022-09-12T05:49:49.197Z,98876.06
2022-09-12T05:51:25.538Z,98877.94
2022-09-12T05:52:59.153Z,98870.84
2022-09-12T05:54:34.365Z,98872.34
2022-09-12T05:56:08.763Z,98859.47
2022-09-12T05:57:45.922Z,98858.41
2022-09-12T05:59:22.459Z,98859.19
2022-09-12T06:00:56.236Z,98866.09
2022-09-12T06:02:29.480Z,98871.63
2022-09-12T06:04:05.224Z,98858.41
2022-09-12T06:05:38.505Z,98862.41
2022-09-12T06:07:11.741Z,98862.81
2022-09-12T06:08:47.405Z,98872.97
2022-09-12T06:10:23.150Z,98863.13
2022-09-12T06:11:56.441Z,98869.06
2022-09-12T06:13:30.065Z,98859.81
2022-09-12T06:15:04.982Z,98858.09
2022-09-12T06:16:38.941Z,98859.09
2022-09-12T06:18:12.268Z,98869.47
2022-09-12T06:19:45.732Z,98865.81
2022-09-12T06:21:19.391Z,98870.28
2022-09-12T06:22:54.773Z,98857.41
2022-09-12T06:24:27.974Z,98858.31
2022-09-12T06:26:02.036Z,98856.25
2022-09-12T06:27:35.203Z,98855.59
2022-09-12T06:29:08.824Z,98857.22
2022-09-12T06:30:43.649Z,98857.03
2022-09-12T06:32:16.959Z,98861.63
2022-09-12T06:33:51.956Z,98851.69
2022-09-12T06:35:25.089Z,98843.81
2022-09-12T06:36:58.484Z,98846.84
2022-09-12T06:38:31.976Z,98854.06
2022-09-12T06:40:05.615Z,98857.25
2022-09-12T06:41:43.102Z,98851.88
2022-09-12T06:43:17.427Z,98856.41
2022-09-12T06:44:51.068Z,98853.16
2022-09-12T06:46:25.874Z,98854.16
2022-09-12T06:47:59.178Z,98865.25
2022-09-12T06:49:32.378Z,98841.53
2022-09-12T06:51:07.695Z,98851.47
2022-09-12T06:52:40.817Z,98845.94
2022-09-12T06:54:15.458Z,98848.50
2022-09-12T06:55:48.839Z,98844.53
2022-09-12T06:57:22.002Z,98849.28
2022-09-12T06:58:57.775Z,98845.25
2022-09-12T07:00:31.402Z,98850.34
2022-09-12T07:02:06.098Z,98844.94
2022-09-12T07:03:40.395Z,98850.25
2022-09-12T07:05:14.068Z,98844.59
2022-09-12T07:06:47.851Z,98848.09
2022-09-12T07:08:21.079Z,98855.47
2022-09-12T07:09:54.265Z,98845.91
2022-09-12T07:11:30.620Z,98846.31
2022-09-12T07:13:03.819Z,98858.69
2022-09-12T07:14:36.985Z,98854.94
2022-09-12T07:16:14.854Z,98857.91
2022-09-12T07:17:52.188Z,98845.38
2022-09-12T07:19:25.696Z,98839.59
2022-09-12T07:21:01.581Z,98852.56
2022-09-12T07:22:34.975Z,98854.06
2022-09-12T07:24:09.889Z,98852.97
2022-09-12T07:25:43.098Z,98853.34
2022-09-12T07:27:16.594Z,98863.88
2022-09-12T07:28:53.507Z,98853.84
2022-09-12T07:30:27.073Z,98845.81
2022-09-12T07:32:01.765Z,98847.53
2022-09-12T07:33:37.509Z,98856.00
2022-09-12T07:35:11.205Z,98852.88
2022-09-12T07:36:44.393Z,98858.41
2022-09-12T07:38:17.898Z,98850.03
2022-09-12T07:39:51.266Z,98850.03
2022-09-12T07:41:26.476Z,98849.09
2022-09-12T07:42:59.612Z,98853.50
2022-09-12T07:44:32.831Z,98837.47
2022-09-12T07:46:06.767Z,98849.53
2022-09-12T07:47:41.222Z,98846.06
2022-09-12T07:49:15.988Z,98841.53
2022-09-12T07:50:49.258Z,98840.19
2022-09-12T07:52:22.549Z,98851.47
2022-09-12T07:53:56.501Z,98841.69
2022-09-12T07:55:29.764Z,98843.16
2022-09-12T07:57:02.971Z,98861.28
2022-09-12T07:58:37.330Z,98841.94
2022-09-12T08:00:11.415Z,98846.34
2022-09-12T08:01:49.524Z,98850.25
2022-09-12T08:03:22.696Z,98843.22
2022-09-12T08:04:57.553Z,98835.91
2022-09-12T08:06:32.273Z,98844.44
2022-09-12T08:08:05.782Z,98840.09
2022-09-12T08:09:38.916Z,98841.22
2022-09-12T08:11:14.561Z,98846.63
2022-09-12T08:12:47.734Z,98840.19
2022-09-12T08:14:21.886Z,98841.25
2022-09-12T08:16:00.019Z,98836.41
2022-09-12T08:17:33.491Z,98831.53
2022-09-12T08:19:06.774Z,98837.53
2022-09-12T08:20:41.334Z,98834.78
2022-09-12T08:22:14.605Z,98838.03
2022-09-12T08:23:49.536Z,98835.38
2022-09-12T08:25:23.027Z,98829.72
2022-09-12T08:26:56.152Z,98831.94
2022-09-12T08:28:29.379Z,98823.13
2022-09-12T08:30:02.641Z,98820.47
2022-09-12T08:31:37.006Z,98816.44
2022-09-12T08:33:10.151Z,98827.66
2022-09-12T08:34:43.321Z,98824.63
2022-09-12T08:36:20.121Z,98817.28
2022-09-12T08:37:53.387Z,98815.19
2022-09-12T08:39:26.628Z,98807.97
2022-09-12T08:41:06.349Z,98816.25
2022-09-12T08:42:53.604Z,98816.81
2022-09-12T08:44:41.063Z,98812.44
2022-09-12T08:46:22.765Z,98801.03
2022-09-12T08:47:58.088Z,98808.56
2022-09-12T08:49:34.874Z,98802.06
2022-09-12T08:51:14.149Z,98805.44
2022-09-12T08:52:58.777Z,98805.47
2022-09-12T08:54:33.664Z,98805.03
2022-09-12T08:56:09.334Z,98793.53
2022-09-12T08:57:42.531Z,98798.69
2022-09-12T08:59:16.093Z,98794.78
2022-09-12T09:00:56.626Z,98791.63
2022-09-12T09:03:10.515Z,98797.59
2022-09-12T09:04:53.639Z,98797.28
2022-09-12T09:06:42.305Z,98779.13
2022-09-12T09:08:28.121Z,98788.66
2022-09-12T09:10:24.550Z,98782.16
2022-09-12T09:12:08.382Z,98790.03
2022-09-12T09:14:12.985Z,98788.03
2022-09-12T09:15:57.894Z,98797.44
2022-09-12T09:17:35.960Z,98794.97
2022-09-12T09:19:17.526Z,98791.16
2022-09-12T09:20:54.822Z,98787.03
2022-09-12T09:22:39.597Z,98790.31
2022-09-12T09:24:18.071Z,98792.69
2022-09-12T09:25:57.928Z,98783.09
2022-09-12T09:27:40.769Z,98783.47
2022-09-12T09:29:19.190Z,98781.16
2022-09-12T09:30:52.672Z,98777.53
2022-09-12T09:32:29.472Z,98782.06
2022-09-12T09:34:02.795Z,98778.06
2022-09-12T09:35:45.048Z,98774.34
2022-09-12T09:37:21.826Z,98779.06
2022-09-12T09:39:05.842Z,98778.81
2022-09-12T09:40:51.432Z,98777.00
2022-09-12T09:42:34.914Z,98767.56
2022-09-12T09:45:47.914Z,98771.75
2022-09-12T09:47:21.619Z,98764.25
2022-09-12T09:48:56.237Z,98774.16
2022-09-12T09:50:30.612Z,98779.88
2022-09-12T09:52:05.990Z,98776.88
2022-09-12T09:53:46.438Z,98779.00
2022-09-12T09:55:24.643Z,98788.38
2022-09-12T09:56:59.330Z,98785.03
2022-09-12T09:58:33.985Z,98780.94
2022-09-12T10:00:25.957Z,98776.47
2022-09-12T10:02:03.811Z,98771.91
2022-09-12T10:03:40.041Z,98775.09
2022-09-12T10:05:18.604Z,98766.94
2022-09-12T10:06:54.718Z,98771.28
2022-09-12T10:08:30.182Z,98759.91
2022-09-12T10:10:14.585Z,98773.38
2022-09-12T10:11:48.433Z,98771.75
2022-09-12T10:13:28.804Z,98781.19
2022-09-12T10:15:15.322Z,98786.31
2022-09-12T10:16:53.454Z,98784.41
2022-09-12T10:18:38.807Z,98782.84
2022-09-12T10:20:31.221Z,98779.69
2022-09-12T10:22:05.985Z,98782.16
2022-09-12T10:23:41.362Z,98782.00
2022-09-12T10:25:20.059Z,98778.28
2022-09-12T10:26:56.945Z,98777.91
2022-09-12T10:28:37.420Z,98775.94
2022-09-12T10:30:19.802Z,98764.97
2022-09-12T10:31:56.441Z,98769.72
2022-09-12T10:33:31.730Z,98778.09
2022-09-12T10:35:09.188Z,98768.13
2022-09-12T10:36:42.583Z,98769.25
2022-09-12T10:38:23.449Z,98773.94
2022-09-12T10:39:59.096Z,98766.50
2022-09-12T10:41:38.534Z,98771.13
2022-09-12T10:43:18.941Z,98766.19
2022-09-12T10:44:55.743Z,98776.00
2022-09-12T10:46:31.352Z,98767.88
2022-09-12T10:48:23.990Z,98764.72
2022-09-12T10:50:23.065Z,98771.75
2022-09-12T10:51:59.698Z,98771.16
2022-09-12T10:53:42.663Z,98768.19
2022-09-12T10:55:16.793Z,98764.25
2022-09-12T10:57:10.863Z,98762.78
2022-09-12T10:58:59.349Z,98768.94
2022-09-12T11:00:41.283Z,98760.75
2022-09-12T11:02:22.334Z,98769.25
2022-09-12T11:04:16.310Z,98763.44
2022-09-12T11:05:56.560Z,98757.66
2022-09-12T11:07:40.690Z,98753.19
2022-09-12T11:09:22.651Z,98761.09
2022-09-12T11:11:02.315Z,98756.31
2022-09-12T11:12:42.746Z,98757.13
2022-09-12T11:14:29.676Z,98748.44
2022-09-12T11:16:25.254Z,98748.38
2022-09-12T11:18:07.330Z,98750.94
2022-09-12T11:19:59.746Z,98739.66
2022-09-12T11:21:49.145Z,98746.63
2022-09-12T11:23:46.528Z,98750.25
2022-09-12T11:25:31.675Z,98758.28
2022-09-12T11:27:25.629Z,98752.66
2022-09-12T11:29:07.750Z,98751.19
2022-09-12T11:30:52.880Z,98759.25
2022-09-12T11:33:07.746Z,98746.16
2022-09-12T11:34:55.945Z,98738.53
2022-09-12T11:36:36.561Z,98746.25
2022-09-12T11:38:24.721Z,98742.47
2022-09-12T11:40:01.255Z,98750.56
2022-09-12T11:41:39.117Z,98738.19
2022-09-12T11:43:35.656Z,98734.50
2022-09-12T11:45:18.037Z,98734.28
2022-09-12T11:46:52.227Z,98739.00
2022-09-12T11:48:35.423Z,98731.81
2022-09-12T11:50:20.384Z,98739.28
2022-09-12T11:51:58.997Z,98732.41
2022-09-12T11:53:38.840Z,98726.84
2022-09-12T11:55:18.895Z,98719.78
2022-09-12T11:56:56.863Z,98712.22
2022-09-12T11:58:30.723Z,98716.06
2022-09-12T12:00:07.972Z,98721.38
2022-09-12T12:01:48.555Z,98728.88
2022-09-12T12:03:29.707Z,98736.97
2022-09-12T12:05:21.845Z,98722.50
2022-09-12T12:07:02.892Z,98722.13
2022-09-12T12:08:41.277Z,98724.09
2022-09-12T12:10:28.274Z,98725.09
2022-09-12T12:12:06.738Z,98721.34
2022-09-12T12:13:46.742Z,98724.53
2022-09-12T12:15:21.235Z,98718.28
2022-09-12T12:16:54.954Z,98728.19
2022-09-12T12:18:30.366Z,98714.44
2022-09-12T12:20:08.674Z,98722.59
2022-09-12T12:21:44.699Z,98719.31
2022-09-12T12:23:27.472Z,98725.22
2022-09-12T12:25:27.569Z,98723.06
2022-09-12T12:27:04.705Z,98719.25
2022-09-12T12:29:00.588Z,98726.91
2022-09-12T12:31:05.730Z,98737.38
2022-09-12T12:32:39.094Z,98720.53
2022-09-12T12:34:28.831Z,98723.22
2022-09-12T12:36:07.236Z,98731.09
2022-09-12T12:37:56.025Z,98726.00
2022-09-12T12:40:01.571Z,98721.84
2022-09-12T12:41:46.176Z,98719.50
2022-09-12T12:43:34.710Z,98713.19
2022-09-12T12:45:50.290Z,98705.03
2022-09-12T12:47:25.336Z,98710.09
2022-09-12T12:49:20.619Z,98702.41
2022-09-12T12:50:53.103Z,98698.72
2022-09-12T12:52:29.232Z,98701.88
2022-09-12T12:54:08.693Z,98695.78
2022-09-12T12:55:50.320Z,98690.69
2022-09-12T12:57:32.146Z,98692.78
2022-09-12T12:59:14.564Z,98701.97
2022-09-12T13:00:48.074Z,98704.00
2022-09-12T13:02:28.505Z,98700.56
2022-09-12T13:04:04.925Z,98700.91
2022-09-12T13:05:43.826Z,98697.56
2022-09-12T13:07:26.415Z,98694.56
2022-09-12T13:09:03.580Z,98701.66
2022-09-12T13:10:39.351Z,98699.34
2022-09-12T13:12:19.682Z,98705.44
2022-09-12T13:13:59.326Z,98696.59
2022-09-12T13:15:50.873Z,98707.81
2022-09-12T13:17:28.763Z,98695.81
2022-09-12T13:19:05.767Z,98704.44
2022-09-12T13:20:48.488Z,98704.56
2022-09-12T13:22:23.753Z,98704.22
2022-09-12T13:24:04.854Z,98699.19
2022-09-12T13:25:39.451Z,98693.22
2022-09-12T13:27:19.989Z,98703.44
2022-09-12T13:29:10.902Z,98701.34
2022-09-12T13:30:47.719Z,98703.72
2022-09-12T13:32:21.020Z,98707.16
2022-09-12T13:33:57.186Z,98706.81
2022-09-12T13:35:41.364Z,98691.63
2022-09-12T13:37:30.288Z,98694.69
2022-09-12T13:39:16.027Z,98693.44
2022-09-12T13:41:10.925Z,98693.63
2022-09-12T13:42:49.003Z,98705.97
2022-09-12T13:44:24.581Z,98708.44
2022-09-12T13:45:57.922Z,98708.34
2022-09-12T13:47:34.636Z,98716.19
2022-09-12T13:49:21.309Z,98712.31
2022-09-12T13:51:00.295Z,98716.91
2022-09-12T13:52:35.999Z,98715.41
2022-09-12T13:54:09.233Z,98713.13
2022-09-12T13:55:44.917Z,98698.88
2022-09-12T13:57:34.412Z,98703.25
2022-09-12T13:59:13.405Z,98694.88
2022-09-12T14:00:46.762Z,98698.47
2022-09-12T14:02:20.765Z,98688.22
2022-09-12T14:04:13.459Z,98692.16
2022-09-12T14:05:56.837Z,98699.28
2022-09-12T14:07:30.039Z,98694.78
2022-09-12T14:09:03.653Z,98702.66
2022-09-12T14:10:39.521Z,98709.09
2022-09-12T14:12:20.695Z,98711.13
2022-09-12T14:13:56.147Z,98707.38
2022-09-12T14:15:37.073Z,98700.56
2022-09-12T14:17:19.810Z,98695.25
2022-09-12T14:18:55.440Z,98703.31
2022-09-12T14:20:32.693Z,98703.44
2022-09-12T14:22:06.002Z,98704.81
2022-09-12T14:23:42.841Z,98695.69
2022-09-12T14:25:17.509Z,98693.63
2022-09-12T14:26:52.657Z,98690.63
2022-09-12T14:28:28.581Z,98685.63
2022-09-12T14:30:07.692Z,98702.91
2022-09-12T14:31:41.426Z,98697.66
2022-09-12T14:33:20.950Z,98704.47
2022-09-12T14:35:09.288Z,98710.97
2022-09-12T14:36:48.818Z,98712.78
2022-09-12T14:38:32.566Z,98713.53
2022-09-12T14:40:17.365Z,98724.00
2022-09-12T14:41:52.757Z,98702.44
2022-09-12T14:43:29.866Z,98703.69
2022-09-12T14:45:16.079Z,98714.97
2022-09-12T14:46:50.399Z,98717.72
2022-09-12T14:48:25.161Z,98704.03
2022-09-12T14:49:58.549Z,98721.22
2022-09-12T14:51:36.578Z,98715.34
2022-09-12T14:53:25.572Z,98706.38
2022-09-12T14:55:01.909Z,98712.41
2022-09-12T14:56:42.536Z,98713.00
2022-09-12T14:58:23.841Z,98711.72
2022-09-12T15:00:20.567Z,98716.63
2022-09-12T15:02:22.560Z,98707.81
2022-09-12T15:03:57.682Z,98719.13
2022-09-12T15:05:31.540Z,98721.75
2022-09-12T15:07:16.059Z,98716.91
2022-09-12T15:08:49.358Z,98717.50
2022-09-12T15:10:25.575Z,98721.75
2022-09-12T15:11:58.920Z,98717.22
2022-09-12T15:13:41.128Z,98724.09
2022-09-12T15:15:17.335Z,98715.13
2022-09-12T15:16:50.491Z,98727.25
2022-09-12T15:18:25.945Z,98727.56
2022-09-12T15:19:58.081Z,98721.38
2022-09-12T15:21:31.328Z,98720.94
2022-09-12T15:23:03.630Z,98709.81
2022-09-12T15:24:39.214Z,98719.31
2022-09-12T15:26:17.923Z,98697.63
2022-09-12T15:27:56.801Z,98709.91
2022-09-12T15:29:30.050Z,98709.81
2022-09-12T15:31:08.641Z,98718.16
2022-09-12T15:32:43.523Z,98723.03
2022-09-12T15:34:16.857Z,98717.53
2022-09-12T15:35:49.302Z,98715.31
2022-09-12T15:37:24.596Z,98715.06
2022-09-12T15:38:57.885Z,98718.38
2022-09-12T15:40:30.118Z,98720.56
2022-09-12T15:42:03.313Z,98722.88
2022-09-12T15:43:36.773Z,98726.91
2022-09-12T15:45:19.629Z,98720.09
2022-09-12T15:46:54.327Z,98725.81
2022-09-12T15:48:27.562Z,98724.94
2022-09-12T15:49:59.971Z,98721.41
2022-09-12T15:51:33.099Z,98722.38
2022-09-12T15:53:06.289Z,98724.56
2022-09-12T15:54:39.412Z,98724.47
2022-09-12T15:56:13.097Z,98735.25
2022-09-12T15:57:46.766Z,98731.03
2022-09-12T15:59:19.961Z,98722.78
2022-09-12T16:00:53.163Z,98730.78
2022-09-12T16:02:27.032Z,98719.22
2022-09-12T16:04:00.468Z,98722.06
2022-09-12T16:05:34.457Z,98727.16
2022-09-12T16:07:07.675Z,98726.47
2022-09-12T16:08:41.118Z,98724.91
2022-09-12T16:10:17.980Z,98724.63
2022-09-12T16:11:52.418Z,98728.34
2022-09-12T16:13:25.952Z,98728.91
2022-09-12T16:14:59.757Z,98728.09
2022-09-12T16:16:33.057Z,98734.63
2022-09-12T16:18:08.059Z,98736.59
2022-09-12T16:19:41.289Z,98740.63
2022-09-12T16:21:15.829Z,98735.38
2022-09-12T16:22:49.659Z,98730.41
2022-09-12T16:24:23.172Z,98730.00
2022-09-12T16:25:59.914Z,98739.25
2022-09-12T16:27:34.262Z,98739.25
2022-09-12T16:29:07.409Z,98730.72
2022-09-12T16:30:40.603Z,98739.41
2022-09-12T16:32:13.820Z,98735.28
2022-09-12T16:33:48.867Z,98731.31
2022-09-12T16:35:22.581Z,98733.88
2022-09-12T16:36:55.846Z,98745.19
2022-09-12T16:38:29.084Z,98740.09
2022-09-12T16:40:02.801Z,98735.97
2022-09-12T16:41:36.061Z,98744.34
2022-09-12T16:43:09.205Z,98745.91
2022-09-12T16:44:42.734Z,98754.84
2022-09-12T16:46:18.298Z,98748.72
2022-09-12T16:47:51.603Z,98742.94
2022-09-12T16:49:26.309Z,98755.13
2022-09-12T16:51:01.993Z,98757.53
2022-09-12T16:52:35.668Z,98755.38
2022-09-12T16:54:09.050Z,98752.25
2022-09-12T16:55:49.785Z,98754.38
2022-09-12T16:57:23.396Z,98762.59
2022-09-12T16:58:57.080Z,98760.47
2022-09-12T17:00:30.326Z,98762.56
2022-09-12T17:02:03.972Z,98763.66
2022-09-12T17:03:37.338Z,98760.41
2022-09-12T17:05:12.408Z,98758.13
2022-09-12T17:06:45.605Z,98768.03
2022-09-12T17:08:18.858Z,98762.06
2022-09-12T17:09:52.119Z,98767.59
2022-09-12T17:11:29.735Z,98760.66
2022-09-12T17:13:03.734Z,98770.00
2022-09-12T17:14:36.962Z,98772.22
2022-09-12T17:16:12.836Z,98773.22
2022-09-12T17:17:47.424Z,98766.53
2022-09-12T17:19:22.421Z,98778.28
2022-09-12T17:20:55.987Z,98769.63
2022-09-12T17:22:29.105Z,98770.19
2022-09-12T17:24:03.760Z,98774.97
2022-09-12T17:25:37.065Z,98769.28
2022-09-12T17:27:10.306Z,98771.28
2022-09-12T17:28:43.941Z,98773.50
2022-09-12T17:30:17.698Z,98768.94
2022-09-12T17:31:50.842Z,98780.22
2022-09-12T17:33:23.222Z,98782.31
2022-09-12T17:34:56.718Z,98789.75
2022-09-12T17:36:32.932Z,98787.63
2022-09-12T17:38:06.545Z,98793.75
2022-09-12T17:39:39.714Z,98794.88
2022-09-12T17:41:16.080Z,98796.25
2022-09-12T17:42:49.748Z,98790.69
2022-09-12T17:44:24.284Z,98796.19
2022-09-12T17:45:56.888Z,98797.31
2022-09-12T17:47:30.091Z,98800.25
2022-09-12T17:49:06.291Z,98801.22
2022-09-12T17:50:40.526Z,98806.84
2022-09-12T17:52:15.078Z,98795.38
2022-09-12T17:53:47.610Z,98801.47
2022-09-12T17:55:21.344Z,98800.50
2022-09-12T17:56:56.261Z,98806.13
2022-09-12T17:58:29.518Z,98806.13
2022-09-12T18:00:02.864Z,98803.69
2022-09-12T18:02:02.730Z,98797.16
2022-09-12T18:03:35.326Z,98804.09
2022-09-12T18:05:10.461Z,98809.59
2022-09-12T18:06:48.101Z,98811.41
2022-09-12T18:08:24.400Z,98809.09
2022-09-12T18:09:58.302Z,98809.63
2022-09-12T18:11:31.467Z,98819.25
2022-09-12T18:13:04.802Z,98802.56
2022-09-12T18:14:38.635Z,98810.75
2022-09-12T18:16:12.536Z,98824.56
2022-09-12T18:17:45.854Z,98811.25
2022-09-12T18:19:19.371Z,98810.66
2022-09-12T18:20:52.670Z,98819.44
2022-09-12T18:22:25.887Z,98805.75
2022-09-12T18:24:01.112Z,98825.16
2022-09-12T18:25:34.329Z,98820.88
2022-09-12T18:27:07.856Z,98822.72
2022-09-12T18:28:43.601Z,98823.81
2022-09-12T18:30:22.145Z,98819.66
2022-09-12T18:31:55.428Z,98831.41
2022-09-12T18:33:29.179Z,98819.22
2022-09-12T18:35:02.474Z,98824.34
2022-09-12T18:36:35.685Z,98822.59
2022-09-12T18:38:08.957Z,98824.34
2022-09-12T18:39:44.054Z,98829.06
2022-09-12T18:41:19.328Z,98823.13
2022-09-12T18:42:53.159Z,98822.38
2022-09-12T18:44:26.414Z,98833.84
2022-09-12T18:46:04.720Z,98821.66
2022-09-12T18:47:37.999Z,98828.72
2022-09-12T18:49:11.171Z,98828.97
2022-09-12T18:50:44.537Z,98825.59
2022-09-12T18:52:19.136Z,98831.19
2022-09-12T18:53:54.948Z,98829.75
2022-09-12T18:55:31.269Z,98835.09
2022-09-12T18:57:04.867Z,98835.09
2022-09-12T18:58:38.905Z,98837.03
2022-09-12T19:00:13.749Z,98838.16
2022-09-12T19:01:47.323Z,98832.19
2022-09-12T19:03:19.467Z,98834.13
2022-09-12T19:04:53.050Z,98845.09
2022-09-12T19:06:27.824Z,98844.50